sensor_id;sensor_type;location;lat;lon;timestamp;P1;durP1;ratioP1;P2;durP2;ratioP2
21733;SDS011;11029;47.820;10.534;2024-02-14T00:02:27;6.70;;;2.92;;
21733;SDS011;11029;47.820;10.534;2024-02-14T00:05:12;4.32;;;2.33;;
21733;SDS011;11029;47.820;10.534;2024-02-14T00:07:58;6.20;;;3.22;;
21733;SDS011;11029;47.820;10.534;2024-02-14T00:10:44;5.35;;;2.92;;
21733;SDS011;11029;47.820;10.534;2024-02-14T00:13:29;5.97;;;2.78;;
21733;SDS011;11029;47.820;10.534;2024-02-14T00:16:19;6.35;;;2.97;;
21733;SDS011;11029;47.820;10.534;2024-02-14T00:19:04;7.30;;;2.88;;
21733;SDS011;11029;47.820;10.534;2024-02-14T00:21:50;6.97;;;3.65;;
21733;SDS011;11029;47.820;10.534;2024-02-14T00:24:35;5.70;;;3.25;;
21733;SDS011;11029;47.820;10.534;2024-02-14T00:27:21;8.30;;;3.83;;
21733;SDS011;11029;47.820;10.534;2024-02-14T00:30:07;7.93;;;3.00;;
21733;SDS011;11029;47.820;10.534;2024-02-14T00:32:53;13.35;;;3.95;;
21733;SDS011;11029;47.820;10.534;2024-02-14T00:35:38;13.52;;;3.83;;
21733;SDS011;11029;47.820;10.534;2024-02-14T00:38:24;8.52;;;2.85;;
21733;SDS011;11029;47.820;10.534;2024-02-14T00:41:13;8.45;;;3.13;;
21733;SDS011;11029;47.820;10.534;2024-02-14T00:43:58;7.80;;;2.60;;
21733;SDS011;11029;47.820;10.534;2024-02-14T00:46:44;7.38;;;3.08;;
21733;SDS011;11029;47.820;10.534;2024-02-14T00:49:29;3.92;;;2.13;;
21733;SDS011;11029;47.820;10.534;2024-02-14T00:52:17;4.95;;;2.47;;
21733;SDS011;11029;47.820;10.534;2024-02-14T00:55:02;7.10;;;3.35;;
21733;SDS011;11029;47.820;10.534;2024-02-14T00:57:48;6.13;;;2.75;;
21733;SDS011;11029;47.820;10.534;2024-02-14T01:00:34;7.80;;;3.15;;
21733;SDS011;11029;47.820;10.534;2024-02-14T01:03:20;10.68;;;3.58;;
21733;SDS011;11029;47.820;10.534;2024-02-14T01:06:06;4.57;;;3.05;;
21733;SDS011;11029;47.820;10.534;2024-02-14T01:08:52;7.82;;;3.58;;
21733;SDS011;11029;47.820;10.534;2024-02-14T01:11:38;13.63;;;4.32;;
21733;SDS011;11029;47.820;10.534;2024-02-14T01:14:24;12.20;;;4.53;;
21733;SDS011;11029;47.820;10.534;2024-02-14T01:17:09;9.02;;;4.13;;
21733;SDS011;11029;47.820;10.534;2024-02-14T01:19:55;6.93;;;3.10;;
21733;SDS011;11029;47.820;10.534;2024-02-14T01:22:41;8.55;;;4.43;;
21733;SDS011;11029;47.820;10.534;2024-02-14T01:25:26;10.90;;;4.10;;
21733;SDS011;11029;47.820;10.534;2024-02-14T01:28:12;9.32;;;3.85;;
21733;SDS011;11029;47.820;10.534;2024-02-14T01:30:57;14.85;;;6.72;;
21733;SDS011;11029;47.820;10.534;2024-02-14T01:33:42;8.52;;;3.78;;
21733;SDS011;11029;47.820;10.534;2024-02-14T01:36:30;9.98;;;3.30;;
21733;SDS011;11029;47.820;10.534;2024-02-14T01:39:16;8.55;;;3.63;;
21733;SDS011;11029;47.820;10.534;2024-02-14T01:42:03;7.13;;;3.38;;
21733;SDS011;11029;47.820;10.534;2024-02-14T01:44:52;6.53;;;3.13;;
21733;SDS011;11029;47.820;10.534;2024-02-14T01:47:39;8.32;;;3.00;;
21733;SDS011;11029;47.820;10.534;2024-02-14T01:50:26;8.82;;;3.35;;
21733;SDS011;11029;47.820;10.534;2024-02-14T01:53:16;5.82;;;3.33;;
21733;SDS011;11029;47.820;10.534;2024-02-14T01:56:02;9.15;;;3.70;;
21733;SDS011;11029;47.820;10.534;2024-02-14T01:58:49;6.90;;;3.58;;
21733;SDS011;11029;47.820;10.534;2024-02-14T02:01:35;6.65;;;3.08;;
21733;SDS011;11029;47.820;10.534;2024-02-14T02:04:21;4.82;;;3.03;;
21733;SDS011;11029;47.820;10.534;2024-02-14T02:07:06;7.13;;;2.88;;
21733;SDS011;11029;47.820;10.534;2024-02-14T02:09:52;7.47;;;3.03;;
21733;SDS011;11029;47.820;10.534;2024-02-14T02:12:38;5.88;;;3.13;;
21733;SDS011;11029;47.820;10.534;2024-02-14T02:15:23;7.00;;;3.00;;
21733;SDS011;11029;47.820;10.534;2024-02-14T02:18:09;9.00;;;3.58;;
21733;SDS011;11029;47.820;10.534;2024-02-14T02:20:55;5.97;;;3.38;;
21733;SDS011;11029;47.820;10.534;2024-02-14T02:23:41;5.05;;;2.78;;
21733;SDS011;11029;47.820;10.534;2024-02-14T02:26:29;5.38;;;3.00;;
21733;SDS011;11029;47.820;10.534;2024-02-14T02:29:15;6.15;;;3.20;;
21733;SDS011;11029;47.820;10.534;2024-02-14T02:32:01;5.43;;;2.65;;
21733;SDS011;11029;47.820;10.534;2024-02-14T02:34:47;6.32;;;2.70;;
21733;SDS011;11029;47.820;10.534;2024-02-14T02:37:33;5.20;;;2.45;;
21733;SDS011;11029;47.820;10.534;2024-02-14T02:40:18;3.65;;;2.50;;
21733;SDS011;11029;47.820;10.534;2024-02-14T02:43:06;7.25;;;2.60;;
21733;SDS011;11029;47.820;10.534;2024-02-14T02:45:51;3.85;;;2.30;;
21733;SDS011;11029;47.820;10.534;2024-02-14T02:48:37;7.00;;;2.50;;
21733;SDS011;11029;47.820;10.534;2024-02-14T02:51:23;4.47;;;2.28;;
21733;SDS011;11029;47.820;10.534;2024-02-14T02:54:09;4.82;;;2.17;;
21733;SDS011;11029;47.820;10.534;2024-02-14T02:56:56;3.38;;;2.53;;
21733;SDS011;11029;47.820;10.534;2024-02-14T02:59:43;4.03;;;2.58;;
21733;SDS011;11029;47.820;10.534;2024-02-14T03:02:31;6.05;;;3.45;;
21733;SDS011;11029;47.820;10.534;2024-02-14T03:05:16;6.47;;;3.67;;
21733;SDS011;11029;47.820;10.534;2024-02-14T03:08:08;5.23;;;2.60;;
21733;SDS011;11029;47.820;10.534;2024-02-14T03:10:54;8.43;;;3.90;;
21733;SDS011;11029;47.820;10.534;2024-02-14T03:13:40;9.68;;;3.38;;
21733;SDS011;11029;47.820;10.534;2024-02-14T03:16:26;7.93;;;3.33;;
21733;SDS011;11029;47.820;10.534;2024-02-14T03:19:12;4.15;;;2.10;;
21733;SDS011;11029;47.820;10.534;2024-02-14T03:21:57;3.08;;;1.98;;
21733;SDS011;11029;47.820;10.534;2024-02-14T03:24:43;2.63;;;1.98;;
21733;SDS011;11029;47.820;10.534;2024-02-14T03:27:31;3.70;;;2.13;;
21733;SDS011;11029;47.820;10.534;2024-02-14T03:30:17;3.55;;;2.17;;
21733;SDS011;11029;47.820;10.534;2024-02-14T03:33:03;6.88;;;2.70;;
21733;SDS011;11029;47.820;10.534;2024-02-14T03:35:49;5.20;;;2.58;;
21733;SDS011;11029;47.820;10.534;2024-02-14T03:38:35;4.47;;;2.25;;
21733;SDS011;11029;47.820;10.534;2024-02-14T03:41:21;7.00;;;2.85;;
21733;SDS011;11029;47.820;10.534;2024-02-14T03:44:06;4.57;;;2.38;;
21733;SDS011;11029;47.820;10.534;2024-02-14T03:46:54;3.08;;;2.42;;
21733;SDS011;11029;47.820;10.534;2024-02-14T03:49:39;5.00;;;4.05;;
21733;SDS011;11029;47.820;10.534;2024-02-14T03:52:25;6.43;;;3.95;;
21733;SDS011;11029;47.820;10.534;2024-02-14T03:55:13;10.20;;;6.68;;
21733;SDS011;11029;47.820;10.534;2024-02-14T03:57:59;7.25;;;4.72;;
21733;SDS011;11029;47.820;10.534;2024-02-14T04:00:44;5.60;;;2.97;;
21733;SDS011;11029;47.820;10.534;2024-02-14T04:03:33;3.22;;;2.13;;
21733;SDS011;11029;47.820;10.534;2024-02-14T04:06:20;5.43;;;2.58;;
21733;SDS011;11029;47.820;10.534;2024-02-14T04:09:06;4.90;;;2.00;;
21733;SDS011;11029;47.820;10.534;2024-02-14T04:11:51;5.07;;;2.78;;
21733;SDS011;11029;47.820;10.534;2024-02-14T04:14:37;11.25;;;5.85;;
21733;SDS011;11029;47.820;10.534;2024-02-14T04:17:23;7.88;;;4.53;;
21733;SDS011;11029;47.820;10.534;2024-02-14T04:20:09;6.75;;;3.90;;
21733;SDS011;11029;47.820;10.534;2024-02-14T04:22:55;6.78;;;3.78;;
21733;SDS011;11029;47.820;10.534;2024-02-14T04:25:40;6.57;;;3.25;;
21733;SDS011;11029;47.820;10.534;2024-02-14T04:28:26;2.95;;;2.00;;
21733;SDS011;11029;47.820;10.534;2024-02-14T04:31:12;3.85;;;2.53;;
21733;SDS011;11029;47.820;10.534;2024-02-14T04:33:58;5.20;;;2.47;;
21733;SDS011;11029;47.820;10.534;2024-02-14T04:36:43;5.65;;;3.00;;
21733;SDS011;11029;47.820;10.534;2024-02-14T04:39:29;8.85;;;3.65;;
21733;SDS011;11029;47.820;10.534;2024-02-14T04:42:14;9.73;;;3.60;;
21733;SDS011;11029;47.820;10.534;2024-02-14T04:45:00;4.65;;;2.00;;
21733;SDS011;11029;47.820;10.534;2024-02-14T04:47:46;3.08;;;1.90;;
21733;SDS011;11029;47.820;10.534;2024-02-14T04:50:32;1.30;;;1.10;;
21733;SDS011;11029;47.820;10.534;2024-02-14T04:53:17;2.05;;;1.05;;
21733;SDS011;11029;47.820;10.534;2024-02-14T04:56:04;1.95;;;0.77;;
21733;SDS011;11029;47.820;10.534;2024-02-14T04:58:50;1.85;;;0.85;;
21733;SDS011;11029;47.820;10.534;2024-02-14T05:01:35;2.20;;;0.70;;
21733;SDS011;11029;47.820;10.534;2024-02-14T05:04:21;1.77;;;0.80;;
21733;SDS011;11029;47.820;10.534;2024-02-14T05:07:07;0.73;;;0.70;;
21733;SDS011;11029;47.820;10.534;2024-02-14T05:09:54;2.25;;;0.80;;
21733;SDS011;11029;47.820;10.534;2024-02-14T05:12:41;1.25;;;0.80;;
21733;SDS011;11029;47.820;10.534;2024-02-14T05:15:27;1.58;;;0.93;;
21733;SDS011;11029;47.820;10.534;2024-02-14T05:18:13;1.00;;;0.70;;
21733;SDS011;11029;47.820;10.534;2024-02-14T05:21:01;0.82;;;0.70;;
21733;SDS011;11029;47.820;10.534;2024-02-14T05:23:50;2.97;;;0.80;;
21733;SDS011;11029;47.820;10.534;2024-02-14T05:26:35;1.48;;;0.50;;
21733;SDS011;11029;47.820;10.534;2024-02-14T05:29:21;0.90;;;0.60;;
21733;SDS011;11029;47.820;10.534;2024-02-14T05:32:07;2.22;;;0.90;;
21733;SDS011;11029;47.820;10.534;2024-02-14T05:34:54;2.42;;;0.73;;
21733;SDS011;11029;47.820;10.534;2024-02-14T05:37:40;4.22;;;0.77;;
21733;SDS011;11029;47.820;10.534;2024-02-14T05:40:25;1.13;;;0.70;;
21733;SDS011;11029;47.820;10.534;2024-02-14T05:43:11;0.98;;;0.70;;
21733;SDS011;11029;47.820;10.534;2024-02-14T05:45:56;0.93;;;0.73;;
21733;SDS011;11029;47.820;10.534;2024-02-14T05:48:42;2.08;;;1.50;;
21733;SDS011;11029;47.820;10.534;2024-02-14T05:51:28;1.92;;;0.88;;
21733;SDS011;11029;47.820;10.534;2024-02-14T05:54:13;1.13;;;0.80;;
21733;SDS011;11029;47.820;10.534;2024-02-14T05:56:59;2.20;;;1.00;;
21733;SDS011;11029;47.820;10.534;2024-02-14T05:59:46;1.00;;;0.73;;
21733;SDS011;11029;47.820;10.534;2024-02-14T06:02:32;1.33;;;0.68;;
21733;SDS011;11029;47.820;10.534;2024-02-14T06:05:18;1.02;;;0.60;;
21733;SDS011;11029;47.820;10.534;2024-02-14T06:08:03;0.60;;;0.60;;
21733;SDS011;11029;47.820;10.534;2024-02-14T06:10:49;1.52;;;0.60;;
21733;SDS011;11029;47.820;10.534;2024-02-14T06:13:35;1.95;;;0.80;;
21733;SDS011;11029;47.820;10.534;2024-02-14T06:16:21;1.65;;;0.60;;
21733;SDS011;11029;47.820;10.534;2024-02-14T06:19:10;2.42;;;0.90;;
21733;SDS011;11029;47.820;10.534;2024-02-14T06:21:56;3.22;;;1.30;;
21733;SDS011;11029;47.820;10.534;2024-02-14T06:24:42;3.55;;;0.80;;
21733;SDS011;11029;47.820;10.534;2024-02-14T06:27:27;2.22;;;0.82;;
21733;SDS011;11029;47.820;10.534;2024-02-14T06:30:13;1.50;;;0.80;;
21733;SDS011;11029;47.820;10.534;2024-02-14T06:32:59;1.23;;;0.80;;
21733;SDS011;11029;47.820;10.534;2024-02-14T06:35:48;1.13;;;0.70;;
21733;SDS011;11029;47.820;10.534;2024-02-14T06:38:34;1.30;;;0.95;;
21733;SDS011;11029;47.820;10.534;2024-02-14T06:41:20;1.33;;;0.50;;
21733;SDS011;11029;47.820;10.534;2024-02-14T06:44:05;0.68;;;0.50;;
21733;SDS011;11029;47.820;10.534;2024-02-14T06:46:51;0.68;;;0.63;;
21733;SDS011;11029;47.820;10.534;2024-02-14T06:49:36;1.00;;;0.63;;
21733;SDS011;11029;47.820;10.534;2024-02-14T06:52:23;0.95;;;0.60;;
21733;SDS011;11029;47.820;10.534;2024-02-14T06:55:09;1.73;;;0.52;;
21733;SDS011;11029;47.820;10.534;2024-02-14T06:57:54;1.42;;;0.70;;
21733;SDS011;11029;47.820;10.534;2024-02-14T07:00:40;1.00;;;0.70;;
21733;SDS011;11029;47.820;10.534;2024-02-14T07:03:25;1.08;;;0.70;;
21733;SDS011;11029;47.820;10.534;2024-02-14T07:06:11;1.98;;;0.80;;
21733;SDS011;11029;47.820;10.534;2024-02-14T07:08:59;1.20;;;0.60;;
21733;SDS011;11029;47.820;10.534;2024-02-14T07:11:45;1.75;;;1.00;;
21733;SDS011;11029;47.820;10.534;2024-02-14T07:14:31;0.65;;;0.60;;
21733;SDS011;11029;47.820;10.534;2024-02-14T07:17:16;2.40;;;1.30;;
21733;SDS011;11029;47.820;10.534;2024-02-14T07:20:02;2.03;;;1.10;;
21733;SDS011;11029;47.820;10.534;2024-02-14T07:22:48;2.20;;;1.30;;
21733;SDS011;11029;47.820;10.534;2024-02-14T07:25:37;2.70;;;1.00;;
21733;SDS011;11029;47.820;10.534;2024-02-14T07:28:23;1.00;;;0.90;;
21733;SDS011;11029;47.820;10.534;2024-02-14T07:31:08;3.55;;;1.73;;
21733;SDS011;11029;47.820;10.534;2024-02-14T07:33:54;8.55;;;2.22;;
21733;SDS011;11029;47.820;10.534;2024-02-14T07:36:40;6.78;;;4.35;;
21733;SDS011;11029;47.820;10.534;2024-02-14T07:39:31;2.97;;;1.80;;
21733;SDS011;11029;47.820;10.534;2024-02-14T07:42:16;3.33;;;1.90;;
21733;SDS011;11029;47.820;10.534;2024-02-14T07:45:02;8.55;;;2.88;;
21733;SDS011;11029;47.820;10.534;2024-02-14T07:47:49;3.50;;;1.73;;
21733;SDS011;11029;47.820;10.534;2024-02-14T07:50:35;5.57;;;2.47;;
21733;SDS011;11029;47.820;10.534;2024-02-14T07:53:22;1.17;;;1.00;;
21733;SDS011;11029;47.820;10.534;2024-02-14T07:56:08;0.80;;;0.70;;
21733;SDS011;11029;47.820;10.534;2024-02-14T07:58:53;2.17;;;1.27;;
21733;SDS011;11029;47.820;10.534;2024-02-14T08:01:39;2.13;;;0.80;;
21733;SDS011;11029;47.820;10.534;2024-02-14T08:04:24;3.17;;;1.00;;
21733;SDS011;11029;47.820;10.534;2024-02-14T08:07:10;1.77;;;1.10;;
21733;SDS011;11029;47.820;10.534;2024-02-14T08:09:56;1.33;;;1.10;;
21733;SDS011;11029;47.820;10.534;2024-02-14T08:12:41;1.27;;;1.13;;
21733;SDS011;11029;47.820;10.534;2024-02-14T08:15:27;2.15;;;1.52;;
21733;SDS011;11029;47.820;10.534;2024-02-14T08:18:13;2.38;;;0.70;;
21733;SDS011;11029;47.820;10.534;2024-02-14T08:20:59;2.13;;;1.38;;
21733;SDS011;11029;47.820;10.534;2024-02-14T08:23:45;0.90;;;0.60;;
21733;SDS011;11029;47.820;10.534;2024-02-14T08:26:30;0.50;;;0.50;;
21733;SDS011;11029;47.820;10.534;2024-02-14T08:29:17;1.00;;;0.90;;
21733;SDS011;11029;47.820;10.534;2024-02-14T08:32:03;1.00;;;0.90;;
21733;SDS011;11029;47.820;10.534;2024-02-14T08:34:50;3.90;;;2.20;;
21733;SDS011;11029;47.820;10.534;2024-02-14T08:37:36;1.15;;;0.60;;
21733;SDS011;11029;47.820;10.534;2024-02-14T08:40:23;1.00;;;0.80;;
21733;SDS011;11029;47.820;10.534;2024-02-14T08:43:09;1.30;;;1.20;;
21733;SDS011;11029;47.820;10.534;2024-02-14T08:45:54;1.27;;;0.73;;
21733;SDS011;11029;47.820;10.534;2024-02-14T08:48:41;0.98;;;0.73;;
21733;SDS011;11029;47.820;10.534;2024-02-14T08:51:33;0.88;;;0.60;;
21733;SDS011;11029;47.820;10.534;2024-02-14T08:54:19;1.40;;;0.88;;
21733;SDS011;11029;47.820;10.534;2024-02-14T08:57:06;2.08;;;0.95;;
21733;SDS011;11029;47.820;10.534;2024-02-14T08:59:51;2.42;;;0.60;;
21733;SDS011;11029;47.820;10.534;2024-02-14T09:02:37;0.50;;;0.50;;
21733;SDS011;11029;47.820;10.534;2024-02-14T09:05:23;1.08;;;0.65;;
21733;SDS011;11029;47.820;10.534;2024-02-14T09:08:09;0.88;;;0.70;;
21733;SDS011;11029;47.820;10.534;2024-02-14T09:10:54;1.30;;;0.50;;
21733;SDS011;11029;47.820;10.534;2024-02-14T09:13:40;0.82;;;0.60;;
21733;SDS011;11029;47.820;10.534;2024-02-14T09:16:26;1.85;;;0.80;;
21733;SDS011;11029;47.820;10.534;2024-02-14T09:19:11;2.28;;;0.60;;
21733;SDS011;11029;47.820;10.534;2024-02-14T09:21:58;0.80;;;0.73;;
21733;SDS011;11029;47.820;10.534;2024-02-14T09:24:43;0.40;;;0.40;;
21733;SDS011;11029;47.820;10.534;2024-02-14T09:27:29;1.83;;;0.60;;
21733;SDS011;11029;47.820;10.534;2024-02-14T09:30:20;0.50;;;0.50;;
21733;SDS011;11029;47.820;10.534;2024-02-14T09:33:19;1.02;;;0.88;;
21733;SDS011;11029;47.820;10.534;2024-02-14T09:36:06;0.85;;;0.57;;
21733;SDS011;11029;47.820;10.534;2024-02-14T09:38:52;1.95;;;0.50;;
21733;SDS011;11029;47.820;10.534;2024-02-14T09:41:40;1.65;;;0.47;;
21733;SDS011;11029;47.820;10.534;2024-02-14T09:44:28;0.60;;;0.50;;
21733;SDS011;11029;47.820;10.534;2024-02-14T09:47:14;2.45;;;1.48;;
21733;SDS011;11029;47.820;10.534;2024-02-14T09:50:03;0.55;;;0.40;;
21733;SDS011;11029;47.820;10.534;2024-02-14T09:52:51;2.85;;;0.52;;
21733;SDS011;11029;47.820;10.534;2024-02-14T09:55:38;0.40;;;0.40;;
21733;SDS011;11029;47.820;10.534;2024-02-14T09:58:25;1.25;;;0.60;;
21733;SDS011;11029;47.820;10.534;2024-02-14T10:01:12;0.93;;;0.50;;
21733;SDS011;11029;47.820;10.534;2024-02-14T10:03:57;0.90;;;0.70;;
21733;SDS011;11029;47.820;10.534;2024-02-14T10:06:43;0.82;;;0.65;;
21733;SDS011;11029;47.820;10.534;2024-02-14T10:09:29;1.10;;;0.60;;
21733;SDS011;11029;47.820;10.534;2024-02-14T10:12:15;1.13;;;0.60;;
21733;SDS011;11029;47.820;10.534;2024-02-14T10:15:01;1.65;;;0.30;;
21733;SDS011;11029;47.820;10.534;2024-02-14T10:17:47;0.80;;;0.50;;
21733;SDS011;11029;47.820;10.534;2024-02-14T10:20:33;0.60;;;0.60;;
21733;SDS011;11029;47.820;10.534;2024-02-14T10:23:20;0.63;;;0.60;;
21733;SDS011;11029;47.820;10.534;2024-02-14T10:26:05;0.57;;;0.50;;
21733;SDS011;11029;47.820;10.534;2024-02-14T10:28:52;0.50;;;0.50;;
21733;SDS011;11029;47.820;10.534;2024-02-14T10:31:37;1.92;;;1.00;;
21733;SDS011;11029;47.820;10.534;2024-02-14T10:34:26;0.95;;;0.80;;
21733;SDS011;11029;47.820;10.534;2024-02-14T10:37:13;0.60;;;0.50;;
21733;SDS011;11029;47.820;10.534;2024-02-14T10:40:01;0.82;;;0.43;;
21733;SDS011;11029;47.820;10.534;2024-02-14T10:42:51;0.85;;;0.40;;
21733;SDS011;11029;47.820;10.534;2024-02-14T10:45:39;1.27;;;1.08;;
21733;SDS011;11029;47.820;10.534;2024-02-14T10:48:24;0.80;;;0.70;;
21733;SDS011;11029;47.820;10.534;2024-02-14T10:51:14;0.75;;;0.47;;
21733;SDS011;11029;47.820;10.534;2024-02-14T10:54:03;0.60;;;0.60;;
21733;SDS011;11029;47.820;10.534;2024-02-14T10:56:58;0.82;;;0.50;;
21733;SDS011;11029;47.820;10.534;2024-02-14T10:59:49;0.80;;;0.60;;
21733;SDS011;11029;47.820;10.534;2024-02-14T11:02:35;0.93;;;0.55;;
21733;SDS011;11029;47.820;10.534;2024-02-14T11:05:21;0.75;;;0.40;;
21733;SDS011;11029;47.820;10.534;2024-02-14T11:08:09;2.55;;;0.75;;
21733;SDS011;11029;47.820;10.534;2024-02-14T11:10:55;0.63;;;0.50;;
21733;SDS011;11029;47.820;10.534;2024-02-14T11:13:43;0.60;;;0.50;;
21733;SDS011;11029;47.820;10.534;2024-02-14T11:16:30;0.38;;;0.35;;
21733;SDS011;11029;47.820;10.534;2024-02-14T11:19:18;0.98;;;0.60;;
21733;SDS011;11029;47.820;10.534;2024-02-14T11:22:12;0.75;;;0.50;;
21733;SDS011;11029;47.820;10.534;2024-02-14T11:25:06;0.50;;;0.47;;
21733;SDS011;11029;47.820;10.534;2024-02-14T11:27:53;0.60;;;0.60;;
21733;SDS011;11029;47.820;10.534;2024-02-14T11:30:39;0.40;;;0.40;;
21733;SDS011;11029;47.820;10.534;2024-02-14T11:33:25;0.80;;;0.50;;
21733;SDS011;11029;47.820;10.534;2024-02-14T11:36:12;0.60;;;0.50;;
21733;SDS011;11029;47.820;10.534;2024-02-14T11:39:02;1.88;;;0.50;;
21733;SDS011;11029;47.820;10.534;2024-02-14T11:41:49;0.80;;;0.50;;
21733;SDS011;11029;47.820;10.534;2024-02-14T11:44:35;0.73;;;0.43;;
21733;SDS011;11029;47.820;10.534;2024-02-14T11:47:23;1.10;;;0.80;;
21733;SDS011;11029;47.820;10.534;2024-02-14T11:50:09;1.00;;;0.60;;
21733;SDS011;11029;47.820;10.534;2024-02-14T11:52:55;0.73;;;0.40;;
21733;SDS011;11029;47.820;10.534;2024-02-14T11:55:44;1.17;;;0.40;;
21733;SDS011;11029;47.820;10.534;2024-02-14T11:58:33;1.35;;;0.50;;
21733;SDS011;11029;47.820;10.534;2024-02-14T12:01:19;1.95;;;0.57;;
21733;SDS011;11029;47.820;10.534;2024-02-14T12:04:05;0.82;;;0.50;;
21733;SDS011;11029;47.820;10.534;2024-02-14T12:06:56;1.15;;;0.50;;
21733;SDS011;11029;47.820;10.534;2024-02-14T12:09:43;1.08;;;0.70;;
21733;SDS011;11029;47.820;10.534;2024-02-14T12:12:28;1.08;;;0.45;;
21733;SDS011;11029;47.820;10.534;2024-02-14T12:15:14;1.85;;;0.40;;
21733;SDS011;11029;47.820;10.534;2024-02-14T12:18:01;2.15;;;0.40;;
21733;SDS011;11029;47.820;10.534;2024-02-14T12:20:47;1.02;;;0.60;;
21733;SDS011;11029;47.820;10.534;2024-02-14T12:26:26;0.57;;;0.50;;
21733;SDS011;11029;47.820;10.534;2024-02-14T12:29:12;0.43;;;0.40;;
21733;SDS011;11029;47.820;10.534;2024-02-14T12:32:05;0.40;;;0.40;;
21733;SDS011;11029;47.820;10.534;2024-02-14T12:37:41;2.35;;;0.60;;
21733;SDS011;11029;47.820;10.534;2024-02-14T12:40:26;1.65;;;0.60;;
21733;SDS011;11029;47.820;10.534;2024-02-14T12:43:14;0.82;;;0.50;;
21733;SDS011;11029;47.820;10.534;2024-02-14T12:46:01;0.30;;;0.30;;
21733;SDS011;11029;47.820;10.534;2024-02-14T12:48:49;0.50;;;0.43;;
21733;SDS011;11029;47.820;10.534;2024-02-14T12:51:35;0.40;;;0.40;;
21733;SDS011;11029;47.820;10.534;2024-02-14T12:54:20;0.43;;;0.30;;
21733;SDS011;11029;47.820;10.534;2024-02-14T12:57:06;0.95;;;0.38;;
21733;SDS011;11029;47.820;10.534;2024-02-14T12:59:51;0.65;;;0.40;;
21733;SDS011;11029;47.820;10.534;2024-02-14T13:02:37;0.30;;;0.30;;
21733;SDS011;11029;47.820;10.534;2024-02-14T13:05:24;0.52;;;0.22;;
21733;SDS011;11029;47.820;10.534;2024-02-14T13:08:11;1.48;;;0.38;;
21733;SDS011;11029;47.820;10.534;2024-02-14T13:10:56;0.43;;;0.30;;
21733;SDS011;11029;47.820;10.534;2024-02-14T13:13:42;0.30;;;0.30;;
21733;SDS011;11029;47.820;10.534;2024-02-14T13:16:28;0.50;;;0.43;;
21733;SDS011;11029;47.820;10.534;2024-02-14T13:19:13;0.75;;;0.40;;
21733;SDS011;11029;47.820;10.534;2024-02-14T13:22:03;0.30;;;0.30;;
21733;SDS011;11029;47.820;10.534;2024-02-14T13:24:49;0.30;;;0.30;;
21733;SDS011;11029;47.820;10.534;2024-02-14T13:27:35;0.40;;;0.40;;
21733;SDS011;11029;47.820;10.534;2024-02-14T13:30:21;2.10;;;0.50;;
21733;SDS011;11029;47.820;10.534;2024-02-14T13:33:07;0.30;;;0.30;;
21733;SDS011;11029;47.820;10.534;2024-02-14T13:35:56;4.22;;;2.53;;
21733;SDS011;11029;47.820;10.534;2024-02-14T13:38:42;0.40;;;0.40;;
21733;SDS011;11029;47.820;10.534;2024-02-14T13:41:29;1.40;;;0.40;;
21733;SDS011;11029;47.820;10.534;2024-02-14T13:44:15;1.05;;;0.43;;
21733;SDS011;11029;47.820;10.534;2024-02-14T13:47:01;0.85;;;0.40;;
21733;SDS011;11029;47.820;10.534;2024-02-14T13:49:47;0.40;;;0.30;;
21733;SDS011;11029;47.820;10.534;2024-02-14T13:52:33;1.30;;;0.90;;
21733;SDS011;11029;47.820;10.534;2024-02-14T13:55:19;1.27;;;0.60;;
21733;SDS011;11029;47.820;10.534;2024-02-14T13:58:05;0.30;;;0.30;;
21733;SDS011;11029;47.820;10.534;2024-02-14T14:00:50;0.40;;;0.30;;
21733;SDS011;11029;47.820;10.534;2024-02-14T14:03:36;0.40;;;0.40;;
21733;SDS011;11029;47.820;10.534;2024-02-14T14:06:21;1.42;;;0.40;;
21733;SDS011;11029;47.820;10.534;2024-02-14T14:09:10;0.50;;;0.45;;
21733;SDS011;11029;47.820;10.534;2024-02-14T14:11:56;0.30;;;0.30;;
21733;SDS011;11029;47.820;10.534;2024-02-14T14:14:41;0.30;;;0.30;;
21733;SDS011;11029;47.820;10.534;2024-02-14T14:17:27;2.85;;;0.32;;
21733;SDS011;11029;47.820;10.534;2024-02-14T14:20:13;0.57;;;0.30;;
21733;SDS011;11029;47.820;10.534;2024-02-14T14:22:59;0.90;;;0.45;;
21733;SDS011;11029;47.820;10.534;2024-02-14T14:25:45;0.40;;;0.40;;
21733;SDS011;11029;47.820;10.534;2024-02-14T14:28:31;0.50;;;0.32;;
21733;SDS011;11029;47.820;10.534;2024-02-14T14:31:17;2.42;;;0.55;;
21733;SDS011;11029;47.820;10.534;2024-02-14T14:34:03;0.75;;;0.40;;
21733;SDS011;11029;47.820;10.534;2024-02-14T14:36:49;1.23;;;0.68;;
21733;SDS011;11029;47.820;10.534;2024-02-14T14:39:35;0.88;;;0.60;;
21733;SDS011;11029;47.820;10.534;2024-02-14T14:42:22;1.48;;;0.40;;
21733;SDS011;11029;47.820;10.534;2024-02-14T14:45:08;0.80;;;0.40;;
21733;SDS011;11029;47.820;10.534;2024-02-14T14:47:53;1.05;;;0.50;;
21733;SDS011;11029;47.820;10.534;2024-02-14T14:50:39;0.38;;;0.30;;
21733;SDS011;11029;47.820;10.534;2024-02-14T14:53:25;0.55;;;0.40;;
21733;SDS011;11029;47.820;10.534;2024-02-14T14:56:11;0.30;;;0.30;;
21733;SDS011;11029;47.820;10.534;2024-02-14T14:58:57;1.48;;;0.30;;
21733;SDS011;11029;47.820;10.534;2024-02-14T15:01:44;0.38;;;0.38;;
21733;SDS011;11029;47.820;10.534;2024-02-14T15:04:30;0.55;;;0.45;;
21733;SDS011;11029;47.820;10.534;2024-02-14T15:07:16;0.90;;;0.40;;
21733;SDS011;11029;47.820;10.534;2024-02-14T15:10:05;1.13;;;0.47;;
21733;SDS011;11029;47.820;10.534;2024-02-14T15:12:52;1.73;;;0.45;;
21733;SDS011;11029;47.820;10.534;2024-02-14T15:15:38;1.15;;;0.50;;
21733;SDS011;11029;47.820;10.534;2024-02-14T15:18:24;0.73;;;0.52;;
21733;SDS011;11029;47.820;10.534;2024-02-14T15:21:10;0.50;;;0.50;;
21733;SDS011;11029;47.820;10.534;2024-02-14T15:23:59;0.68;;;0.45;;
21733;SDS011;11029;47.820;10.534;2024-02-14T15:26:45;0.40;;;0.40;;
21733;SDS011;11029;47.820;10.534;2024-02-14T15:29:45;0.82;;;0.40;;
21733;SDS011;11029;47.820;10.534;2024-02-14T15:32:50;1.83;;;0.50;;
21733;SDS011;11029;47.820;10.534;2024-02-14T15:35:57;0.40;;;0.40;;
21733;SDS011;11029;47.820;10.534;2024-02-14T15:38:44;0.82;;;0.60;;
21733;SDS011;11029;47.820;10.534;2024-02-14T15:41:30;3.03;;;0.60;;
21733;SDS011;11029;47.820;10.534;2024-02-14T15:44:17;1.25;;;0.80;;
21733;SDS011;11029;47.820;10.534;2024-02-14T15:47:03;2.08;;;1.10;;
21733;SDS011;11029;47.820;10.534;2024-02-14T15:49:49;2.55;;;1.42;;
21733;SDS011;11029;47.820;10.534;2024-02-14T15:52:34;2.38;;;1.67;;
21733;SDS011;11029;47.820;10.534;2024-02-14T15:55:20;5.07;;;0.90;;
21733;SDS011;11029;47.820;10.534;2024-02-14T15:58:06;1.20;;;0.80;;
21733;SDS011;11029;47.820;10.534;2024-02-14T16:00:52;4.57;;;2.40;;
21733;SDS011;11029;47.820;10.534;2024-02-14T16:03:39;2.30;;;1.70;;
21733;SDS011;11029;47.820;10.534;2024-02-14T16:06:24;3.20;;;1.77;;
21733;SDS011;11029;47.820;10.534;2024-02-14T16:09:10;2.33;;;1.33;;
21733;SDS011;11029;47.820;10.534;2024-02-14T16:11:56;10.60;;;4.88;;
21733;SDS011;11029;47.820;10.534;2024-02-14T16:14:42;1.73;;;1.23;;
21733;SDS011;11029;47.820;10.534;2024-02-14T16:17:30;2.60;;;1.58;;
21733;SDS011;11029;47.820;10.534;2024-02-14T16:20:16;4.55;;;3.22;;
21733;SDS011;11029;47.820;10.534;2024-02-14T16:23:07;1.02;;;0.95;;
21733;SDS011;11029;47.820;10.534;2024-02-14T16:25:53;2.50;;;1.20;;
21733;SDS011;11029;47.820;10.534;2024-02-14T16:28:38;1.48;;;1.20;;
21733;SDS011;11029;47.820;10.534;2024-02-14T16:31:23;1.33;;;1.10;;
21733;SDS011;11029;47.820;10.534;2024-02-14T16:34:09;1.20;;;1.10;;